createdAt,value
2018-12-09T00:01:58.403Z,7.84
2018-12-09T00:07:01.745Z,7.50
2018-12-09T00:12:05.384Z,7.22
2018-12-09T00:17:08.710Z,7.09
2018-12-09T00:22:12.341Z,7.06
2018-12-09T00:27:15.869Z,7.08
2018-12-09T00:32:19.273Z,7.11
2018-12-09T00:37:22.692Z,7.25
2018-12-09T00:42:25.967Z,7.32
2018-12-09T00:47:29.380Z,7.38
2018-12-09T00:52:32.942Z,7.42
2018-12-09T00:57:36.514Z,7.44
2018-12-09T01:02:39.955Z,7.50
2018-12-09T01:07:43.331Z,7.46
2018-12-09T01:12:54.161Z,7.39
2018-12-09T01:17:57.536Z,7.43
2018-12-09T01:23:00.919Z,7.47
2018-12-09T01:28:04.330Z,7.48
2018-12-09T01:33:07.673Z,7.50
2018-12-09T01:38:11.066Z,7.51
2018-12-09T01:43:14.545Z,7.58
2018-12-09T01:48:18.223Z,7.63
2018-12-09T01:54:00.344Z,7.67
2018-12-09T01:59:03.747Z,7.61
2018-12-09T02:04:07.290Z,7.67
2018-12-09T02:09:10.894Z,7.71
2018-12-09T02:14:14.294Z,7.77
2018-12-09T02:19:37.027Z,7.77
2018-12-09T02:24:40.437Z,7.79
2018-12-09T02:29:43.780Z,7.71
2018-12-09T02:35:06.642Z,7.77
2018-12-09T02:40:10.072Z,7.86
2018-12-09T02:45:13.626Z,7.97
2018-12-09T02:50:17.077Z,8.01
2018-12-09T02:55:20.531Z,8.08
2018-12-09T03:00:43.269Z,8.09
2018-12-09T03:05:46.706Z,8.11
2018-12-09T03:10:50.051Z,8.09
2018-12-09T03:15:53.526Z,8.04
2018-12-09T03:20:56.836Z,8.12
2018-12-09T03:26:00.320Z,8.15
2018-12-09T03:31:03.713Z,8.17
2018-12-09T03:36:07.005Z,8.25
2018-12-09T03:41:10.383Z,8.28
2018-12-09T03:46:13.693Z,8.29
2018-12-09T03:51:17.146Z,8.23
2018-12-09T03:56:20.488Z,8.19
2018-12-09T04:01:23.854Z,8.19
2018-12-09T04:06:27.232Z,8.18
2018-12-09T04:11:30.728Z,8.20
2018-12-09T04:16:34.034Z,8.05
2018-12-09T04:21:37.697Z,7.97
2018-12-09T04:26:41.075Z,7.87
2018-12-09T04:31:44.474Z,7.83
2018-12-09T04:37:07.234Z,7.76
2018-12-09T04:42:10.590Z,7.71
2018-12-09T04:47:13.966Z,7.75
2018-12-09T04:52:17.310Z,7.65
2018-12-09T04:57:20.685Z,7.77
2018-12-09T05:02:24.073Z,7.71
2018-12-09T05:07:27.463Z,7.73
2018-12-09T05:12:31.085Z,7.82
2018-12-09T05:17:34.574Z,7.86
2018-12-09T05:22:37.993Z,7.84
2018-12-09T05:27:41.299Z,7.87
2018-12-09T05:32:44.709Z,7.91
2018-12-09T05:37:48.093Z,7.90
2018-12-09T05:42:51.716Z,7.98
2018-12-09T05:47:55.079Z,7.96
2018-12-09T05:52:58.445Z,7.90
2018-12-09T05:58:01.832Z,7.96
2018-12-09T06:03:05.216Z,8.00
2018-12-09T06:08:08.565Z,8.04
2018-12-09T06:13:11.946Z,8.01
2018-12-09T06:18:15.591Z,8.12
2018-12-09T06:23:18.949Z,8.13
2018-12-09T06:28:22.370Z,8.05
2018-12-09T06:33:25.761Z,8.05
2018-12-09T06:38:29.264Z,8.07
2018-12-09T06:43:32.672Z,8.13
2018-12-09T06:48:36.063Z,8.13
2018-12-09T06:53:39.414Z,8.13
2018-12-09T06:58:42.824Z,8.09
2018-12-09T07:03:46.362Z,8.01
2018-12-09T07:08:49.694Z,7.87
2018-12-09T07:13:53.078Z,7.73
2018-12-09T07:18:56.484Z,7.68
2018-12-09T07:24:00.001Z,7.83
2018-12-09T07:29:03.377Z,7.86
2018-12-09T07:34:06.747Z,7.95
2018-12-09T07:39:10.130Z,8.03
2018-12-09T07:44:13.533Z,8.12
2018-12-09T07:49:16.937Z,8.16
2018-12-09T07:54:20.280Z,8.21
2018-12-09T07:59:23.646Z,8.24
2018-12-09T08:04:27.041Z,8.30
2018-12-09T08:09:30.404Z,8.37
2018-12-09T08:14:54.665Z,8.33
2018-12-09T08:19:58.091Z,8.27
2018-12-09T08:25:01.460Z,8.20
2018-12-09T08:30:04.899Z,8.19
2018-12-09T08:35:08.297Z,8.14
2018-12-09T08:40:11.688Z,7.95
2018-12-09T08:45:16.904Z,7.70
2018-12-09T08:50:20.275Z,7.56
2018-12-09T08:55:23.577Z,7.49
2018-12-09T09:00:46.404Z,7.44
2018-12-09T09:10:59.572Z,7.38
2018-12-09T09:16:02.905Z,7.37
2018-12-09T09:21:06.282Z,7.39
2018-12-09T09:26:09.676Z,7.36
2018-12-09T09:31:13.094Z,7.46
2018-12-09T09:36:16.540Z,7.54
2018-12-09T09:41:20.199Z,7.69
2018-12-09T09:46:23.614Z,7.66
2018-12-09T09:51:26.984Z,7.73
2018-12-09T09:56:30.319Z,7.67
2018-12-09T10:01:33.708Z,7.62
2018-12-09T10:06:37.107Z,7.68
2018-12-09T10:11:40.524Z,7.85
2018-12-09T10:16:44.147Z,7.77
2018-12-09T10:21:47.651Z,7.67
2018-12-09T10:26:50.984Z,7.51
2018-12-09T10:31:54.323Z,7.55
2018-12-09T10:36:57.708Z,7.59
2018-12-09T10:42:01.071Z,7.54
2018-12-09T10:47:04.451Z,7.49
2018-12-09T10:52:07.912Z,7.55
2018-12-09T10:57:11.312Z,7.56
2018-12-09T11:02:33.752Z,7.59
2018-12-09T11:07:49.860Z,7.73
2018-12-09T11:12:53.294Z,7.81
2018-12-09T11:18:16.062Z,7.79
2018-12-09T11:23:19.397Z,7.80
2018-12-09T11:28:22.803Z,7.78
2018-12-09T11:33:26.144Z,7.89
2018-12-09T11:38:29.748Z,7.87
2018-12-09T11:43:33.128Z,7.88
2018-12-09T11:48:36.641Z,7.84
2018-12-09T11:53:40.038Z,7.74
2018-12-09T11:58:43.401Z,7.71
2018-12-09T12:03:46.734Z,7.54
2018-12-09T12:08:50.121Z,7.70
2018-12-09T12:13:53.609Z,7.67
2018-12-09T12:18:57.016Z,7.64
2018-12-09T12:24:12.866Z,7.61
2018-12-09T12:29:16.371Z,7.89
2018-12-09T12:34:19.722Z,8.07
2018-12-09T12:39:23.141Z,8.14
2018-12-09T12:44:26.515Z,8.14
2018-12-09T12:49:30.355Z,8.35
2018-12-09T12:54:33.730Z,8.45
2018-12-09T12:59:37.125Z,8.20
2018-12-09T13:04:40.462Z,8.29
2018-12-09T13:09:43.888Z,8.39
2018-12-09T13:14:47.285Z,8.60
2018-12-09T13:19:50.681Z,8.81
2018-12-09T13:24:54.112Z,8.66
2018-12-09T13:29:57.565Z,8.62
2018-12-09T13:35:00.982Z,8.67
2018-12-09T13:40:04.402Z,8.53
2018-12-09T13:45:09.119Z,8.37
2018-12-09T13:50:12.517Z,8.26
2018-12-09T13:55:15.938Z,8.35
2018-12-09T14:00:38.743Z,8.49
2018-12-09T14:05:42.282Z,8.60
2018-12-09T14:10:45.648Z,8.69
2018-12-09T14:15:49.222Z,8.85
2018-12-09T14:20:52.642Z,8.98
2018-12-09T14:25:56.000Z,9.28
2018-12-09T14:30:59.386Z,9.17
2018-12-09T14:36:02.800Z,9.20
2018-12-09T14:41:06.214Z,9.11
2018-12-09T14:46:09.592Z,9.02
2018-12-09T14:51:13.051Z,8.92
2018-12-09T14:56:16.416Z,8.75
